Olympic Champion — SYWD — position and weather

sailwx.info

Track history (hours):
 
Tides and Currents Weather Stations Pressure Air Temp Water Temp Dewpoint Dewpoint Depression Visibility Wind Speed Wind Dir Waves Ship Positions

Olympic Champion

Last reported at 2017-Sep-19 02:40 UTC. Time now 2017-Sep-23 18:34 UTC.
Position N 40°49' E 018°33'.

Length 204 m; draft 6.4 m.

Type: Ship. MMSI: 237280000.

Date/timePositionNaut miles runAvg speedWind from/ knotsBaromVisibWave heightAir tempDewpointWater temp
2017-Sep-19 02:40N 40°49' E 018°33'423.8
2017-Sep-19 02:30N 40°46' E 018°36'1224.2
2017-Sep-19 02:01N 40°38' E 018°48'1424.1
2017-Sep-19 01:25N 40°28' E 019°01'1123.9
2017-Sep-19 00:56N 40°20' E 019°12'1023.8
2017-Sep-19 00:30N 40°13' E 019°22'1324.1
2017-Sep-18 23:57N 40°04' E 019°34'147 3.4
2017-Sep-17 04:18N 41°47' E 017°16'926.8
2017-Sep-17 03:59N 41°41' E 017°24'1626.9
2017-Sep-17 03:23N 41°30' E 017°40'1027.1
2017-Sep-17 03:00N 41°22' E 017°50'1427.4
2017-Sep-17 02:30N 41°13' E 018°03'1427.2
2017-Sep-17 02:00N 41°03' E 018°16'1427.2
2017-Sep-17 01:31N 40°54' E 018°29'1427.4
2017-Sep-17 01:01N 40°45' E 018°42'1427.6
2017-Sep-17 00:31N 40°35' E 018°55'1427.4
2017-Sep-17 00:00N 40°26' E 019°08'1427.2
2017-Sep-16 23:31N 40°16' E 019°21'1427.2
2017-Sep-16 22:59N 40°06' E 019°34'1627.1
2017-Sep-16 22:24N 39°54' E 019°48'3611.1
2017-Sep-16 19:08N 39°23' E 020°12'324.5
2017-Sep-16 19:00N 39°20' E 020°13'1326.2
2017-Sep-16 18:30N 39°08' E 020°18'1427.2
2017-Sep-16 17:58N 38°54' E 020°24'1327.5
2017-Sep-16 17:31N 38°42' E 020°29'1424.9
2017-Sep-16 16:56N 38°30' E 020°40'1226.9
2017-Sep-16 16:29N 38°24' E 020°53'1327.1
2017-Sep-16 16:01N 38°16' E 021°06'92 8.9
2017-Sep-16 05:39N 39°35' E 020°04'1515.7
2017-Sep-16 04:42N 39°48' E 019°56'716.1
2017-Sep-16 04:14N 39°53' E 019°49'716.2
2017-Sep-16 03:49N 39°57' E 019°42'2122.4
2017-Sep-16 02:54N 40°10' E 019°21'1223.6
2017-Sep-16 02:24N 40°17' E 019°08'1123.7
2017-Sep-16 01:57N 40°23' E 018°57'1123.5
2017-Sep-16 01:29N 40°29' E 018°45'1623.8
2017-Sep-16 00:50N 40°39' E 018°29'824.1
2017-Sep-16 00:29N 40°44' E 018°21'1123.5
2017-Sep-16 00:01N 40°51' E 018°09'1224.1
2017-Sep-15 23:30N 40°58' E 017°55'1021.0
2017-Sep-15 23:00N 41°03' E 017°44'815.9
2017-Sep-15 22:29N 41°07' E 017°34'1122.7
2017-Sep-15 22:00N 41°13' E 017°22'1224.4
2017-Sep-15 21:30N 41°19' E 017°08'212 7.7
2017-Sep-14 18:09N 43°37' E 013°30'0 0.0
2017-Sep-14 17:54N 43°37' E 013°30'0 0.0
2017-Sep-14 17:24N 43°37' E 013°30'0 0.0
2017-Sep-14 16:57N 43°37' E 013°30'0 0.0
2017-Sep-14 16:27N 43°37' E 013°30'0 0.0
2017-Sep-14 15:54N 43°37' E 013°30'0 0.0
2017-Sep-14 15:27N 43°37' E 013°30'0 0.7
2017-Sep-14 14:54N 43°37' E 013°30'24922.2
2017-Sep-14 03:42N 41°13' E 018°04'523.6
2017-Sep-14 03:30N 41°09' E 018°08'1623.8
2017-Sep-14 02:50N 40°58' E 018°23'824.3
2017-Sep-14 02:30N 40°53' E 018°31'1323.9
2017-Sep-14 01:58N 40°44' E 018°44'1823.9
2017-Sep-14 01:12N 40°31' E 019°01'524.1
2017-Sep-14 01:01N 40°28' E 019°05'1224.0
2017-Sep-14 00:31N 40°19' E 019°16'1224.0
2017-Sep-14 00:01N 40°11' E 019°27'1224.1
2017-Sep-13 23:30N 40°02' E 019°38'1224.0
2017-Sep-13 23:01N 39°54' E 019°49'  
2017-Sep-09 22:36N 41°06' E 017°47'21727.0
2017-Sep-09 14:35N 43°29' E 014°06'427.1
2017-Sep-09 14:25N 43°32' E 014°02'  
Track history (hours):
 
Tides and Currents Weather Stations Pressure Air Temp Water Temp Dewpoint Dewpoint Depression Visibility Wind Speed Wind Dir Waves Ship Positions

Olympic Champion

Last reported at 2017-Sep-19 02:40 UTC. Time now 2017-Sep-23 18:34 UTC.
Position N 40°49' E 018°33'.

Length 204 m; draft 6.4 m.

Type: Ship. MMSI: 237280000.

Date/timePositionNaut miles runAvg speedWind from/ knotsBaromVisibWave heightAir tempDewpointWater temp
2017-Sep-19 02:40N 40°49' E 018°33'423.8
2017-Sep-19 02:30N 40°46' E 018°36'1224.2
2017-Sep-19 02:01N 40°38' E 018°48'1424.1
2017-Sep-19 01:25N 40°28' E 019°01'1123.9
2017-Sep-19 00:56N 40°20' E 019°12'1023.8
2017-Sep-19 00:30N 40°13' E 019°22'1324.1
2017-Sep-18 23:57N 40°04' E 019°34'147 3.4
2017-Sep-17 04:18N 41°47' E 017°16'926.8
2017-Sep-17 03:59N 41°41' E 017°24'1626.9
2017-Sep-17 03:23N 41°30' E 017°40'1027.1
2017-Sep-17 03:00N 41°22' E 017°50'1427.4
2017-Sep-17 02:30N 41°13' E 018°03'1427.2
2017-Sep-17 02:00N 41°03' E 018°16'1427.2
2017-Sep-17 01:31N 40°54' E 018°29'1427.4
2017-Sep-17 01:01N 40°45' E 018°42'1427.6
2017-Sep-17 00:31N 40°35' E 018°55'1427.4
2017-Sep-17 00:00N 40°26' E 019°08'1427.2
2017-Sep-16 23:31N 40°16' E 019°21'1427.2
2017-Sep-16 22:59N 40°06' E 019°34'1627.1
2017-Sep-16 22:24N 39°54' E 019°48'3611.1
2017-Sep-16 19:08N 39°23' E 020°12'324.5
2017-Sep-16 19:00N 39°20' E 020°13'1326.2
2017-Sep-16 18:30N 39°08' E 020°18'1427.2
2017-Sep-16 17:58N 38°54' E 020°24'1327.5
2017-Sep-16 17:31N 38°42' E 020°29'1424.9
2017-Sep-16 16:56N 38°30' E 020°40'1226.9
2017-Sep-16 16:29N 38°24' E 020°53'1327.1
2017-Sep-16 16:01N 38°16' E 021°06'92 8.9
2017-Sep-16 05:39N 39°35' E 020°04'1515.7
2017-Sep-16 04:42N 39°48' E 019°56'716.1
2017-Sep-16 04:14N 39°53' E 019°49'716.2
2017-Sep-16 03:49N 39°57' E 019°42'2122.4
2017-Sep-16 02:54N 40°10' E 019°21'1223.6
2017-Sep-16 02:24N 40°17' E 019°08'1123.7
2017-Sep-16 01:57N 40°23' E 018°57'1123.5
2017-Sep-16 01:29N 40°29' E 018°45'1623.8
2017-Sep-16 00:50N 40°39' E 018°29'824.1
2017-Sep-16 00:29N 40°44' E 018°21'1123.5
2017-Sep-16 00:01N 40°51' E 018°09'1224.1
2017-Sep-15 23:30N 40°58' E 017°55'1021.0
2017-Sep-15 23:00N 41°03' E 017°44'815.9
2017-Sep-15 22:29N 41°07' E 017°34'1122.7
2017-Sep-15 22:00N 41°13' E 017°22'1224.4
2017-Sep-15 21:30N 41°19' E 017°08'212 7.7
2017-Sep-14 18:09N 43°37' E 013°30'0 0.0
2017-Sep-14 17:54N 43°37' E 013°30'0 0.0
2017-Sep-14 17:24N 43°37' E 013°30'0 0.0
2017-Sep-14 16:57N 43°37' E 013°30'0 0.0
2017-Sep-14 16:27N 43°37' E 013°30'0 0.0
2017-Sep-14 15:54N 43°37' E 013°30'0 0.0
2017-Sep-14 15:27N 43°37' E 013°30'0 0.7
2017-Sep-14 14:54N 43°37' E 013°30'24922.2
2017-Sep-14 03:42N 41°13' E 018°04'523.6
2017-Sep-14 03:30N 41°09' E 018°08'1623.8
2017-Sep-14 02:50N 40°58' E 018°23'824.3
2017-Sep-14 02:30N 40°53' E 018°31'1323.9
2017-Sep-14 01:58N 40°44' E 018°44'1823.9
2017-Sep-14 01:12N 40°31' E 019°01'524.1
2017-Sep-14 01:01N 40°28' E 019°05'1224.0
2017-Sep-14 00:31N 40°19' E 019°16'1224.0
2017-Sep-14 00:01N 40°11' E 019°27'1224.1
2017-Sep-13 23:30N 40°02' E 019°38'1224.0
2017-Sep-13 23:01N 39°54' E 019°49'  
2017-Sep-09 22:36N 41°06' E 017°47'21727.0
2017-Sep-09 14:35N 43°29' E 014°06'427.1
2017-Sep-09 14:25N 43°32' E 014°02'  

Dump ship's entire track history